sensor_id;sensor_type;location;lat;lon;timestamp;temperature;humidity
64961;SHT31;51487;52.266;10.542;2023-07-31T00:01:57;16.84;92.78
64961;SHT31;51487;52.266;10.542;2023-07-31T00:04:22;16.80;93.35
64961;SHT31;51487;52.266;10.542;2023-07-31T00:06:48;16.85;92.97
64961;SHT31;51487;52.266;10.542;2023-07-31T00:09:14;16.92;93.02
64961;SHT31;51487;52.266;10.542;2023-07-31T00:11:39;16.87;92.31
64961;SHT31;51487;52.266;10.542;2023-07-31T00:14:05;16.85;92.52
64961;SHT31;51487;52.266;10.542;2023-07-31T00:16:30;16.79;92.81
64961;SHT31;51487;52.266;10.542;2023-07-31T00:18:56;16.77;92.91
64961;SHT31;51487;52.266;10.542;2023-07-31T00:21:21;16.81;92.82
64961;SHT31;51487;52.266;10.542;2023-07-31T00:23:48;16.83;92.84
64961;SHT31;51487;52.266;10.542;2023-07-31T00:26:14;16.83;92.18
64961;SHT31;51487;52.266;10.542;2023-07-31T00:28:40;16.83;92.05
64961;SHT31;51487;52.266;10.542;2023-07-31T00:31:05;16.77;93.04
64961;SHT31;51487;52.266;10.542;2023-07-31T00:33:31;16.80;93.00
64961;SHT31;51487;52.266;10.542;2023-07-31T00:35:57;16.84;92.89
64961;SHT31;51487;52.266;10.542;2023-07-31T00:38:22;16.87;93.25
64961;SHT31;51487;52.266;10.542;2023-07-31T00:40:49;16.80;92.95
64961;SHT31;51487;52.266;10.542;2023-07-31T00:43:14;16.87;93.29
64961;SHT31;51487;52.266;10.542;2023-07-31T00:45:40;16.85;94.34
64961;SHT31;51487;52.266;10.542;2023-07-31T00:48:06;16.85;94.49
64961;SHT31;51487;52.266;10.542;2023-07-31T00:50:33;16.81;93.15
64961;SHT31;51487;52.266;10.542;2023-07-31T00:52:59;16.88;93.92
64961;SHT31;51487;52.266;10.542;2023-07-31T00:55:24;16.87;93.17
64961;SHT31;51487;52.266;10.542;2023-07-31T00:57:51;16.85;93.80
64961;SHT31;51487;52.266;10.542;2023-07-31T01:00:18;16.84;93.78
64961;SHT31;51487;52.266;10.542;2023-07-31T01:02:44;16.88;94.24
64961;SHT31;51487;52.266;10.542;2023-07-31T01:05:10;16.84;94.08
64961;SHT31;51487;52.266;10.542;2023-07-31T01:08:04;16.71;94.99
64961;SHT31;51487;52.266;10.542;2023-07-31T01:10:52;16.77;95.26
64961;SHT31;51487;52.266;10.542;2023-07-31T01:13:21;16.77;94.92
64961;SHT31;51487;52.266;10.542;2023-07-31T01:15:47;16.69;95.35
64961;SHT31;51487;52.266;10.542;2023-07-31T01:18:12;16.73;95.19
64961;SHT31;51487;52.266;10.542;2023-07-31T01:20:42;16.77;94.87
64961;SHT31;51487;52.266;10.542;2023-07-31T01:26:19;16.74;95.35
64961;SHT31;51487;52.266;10.542;2023-07-31T01:31:45;16.83;94.63
64961;SHT31;51487;52.266;10.542;2023-07-31T01:34:15;16.71;94.55
64961;SHT31;51487;52.266;10.542;2023-07-31T01:36:43;16.91;94.72
64961;SHT31;51487;52.266;10.542;2023-07-31T01:39:09;16.83;93.98
64961;SHT31;51487;52.266;10.542;2023-07-31T01:41:34;16.76;94.30
64961;SHT31;51487;52.266;10.542;2023-07-31T01:44:00;16.81;94.17
64961;SHT31;51487;52.266;10.542;2023-07-31T01:46:25;16.77;94.24
64961;SHT31;51487;52.266;10.542;2023-07-31T01:48:51;16.81;94.01
64961;SHT31;51487;52.266;10.542;2023-07-31T01:51:17;16.83;93.87
64961;SHT31;51487;52.266;10.542;2023-07-31T01:53:42;16.77;94.31
64961;SHT31;51487;52.266;10.542;2023-07-31T01:56:08;16.81;94.08
64961;SHT31;51487;52.266;10.542;2023-07-31T01:58:33;16.77;94.28
64961;SHT31;51487;52.266;10.542;2023-07-31T02:00:59;16.70;94.06
64961;SHT31;51487;52.266;10.542;2023-07-31T02:03:24;16.64;94.87
64961;SHT31;51487;52.266;10.542;2023-07-31T02:05:50;16.70;94.64
64961;SHT31;51487;52.266;10.542;2023-07-31T02:08:16;16.70;94.69
64961;SHT31;51487;52.266;10.542;2023-07-31T02:10:42;16.69;94.63
64961;SHT31;51487;52.266;10.542;2023-07-31T02:13:08;16.55;95.21
64961;SHT31;51487;52.266;10.542;2023-07-31T02:15:34;16.63;95.33
64961;SHT31;51487;52.266;10.542;2023-07-31T02:18:00;16.59;95.70
64961;SHT31;51487;52.266;10.542;2023-07-31T02:20:25;16.56;95.63
64961;SHT31;51487;52.266;10.542;2023-07-31T02:22:51;16.57;95.64
64961;SHT31;51487;52.266;10.542;2023-07-31T02:25:16;16.53;95.90
64961;SHT31;51487;52.266;10.542;2023-07-31T02:27:42;16.53;95.85
64961;SHT31;51487;52.266;10.542;2023-07-31T02:30:09;16.57;95.77
64961;SHT31;51487;52.266;10.542;2023-07-31T02:32:35;16.53;96.15
64961;SHT31;51487;52.266;10.542;2023-07-31T02:35:00;16.59;95.68
64961;SHT31;51487;52.266;10.542;2023-07-31T02:37:27;16.61;95.67
64961;SHT31;51487;52.266;10.542;2023-07-31T02:39:54;16.63;96.11
64961;SHT31;51487;52.266;10.542;2023-07-31T02:42:20;16.64;95.78
64961;SHT31;51487;52.266;10.542;2023-07-31T02:44:45;16.64;95.99
64961;SHT31;51487;52.266;10.542;2023-07-31T02:47:11;16.57;96.56
64961;SHT31;51487;52.266;10.542;2023-07-31T02:49:37;16.50;96.37
64961;SHT31;51487;52.266;10.542;2023-07-31T02:52:03;16.63;95.98
64961;SHT31;51487;52.266;10.542;2023-07-31T02:54:28;16.61;96.53
64961;SHT31;51487;52.266;10.542;2023-07-31T02:56:54;16.60;96.46
64961;SHT31;51487;52.266;10.542;2023-07-31T02:59:20;16.56;96.85
64961;SHT31;51487;52.266;10.542;2023-07-31T03:01:45;16.48;97.06
64961;SHT31;51487;52.266;10.542;2023-07-31T03:04:11;16.49;97.03
64961;SHT31;51487;52.266;10.542;2023-07-31T03:06:36;16.59;96.78
64961;SHT31;51487;52.266;10.542;2023-07-31T03:09:02;16.56;97.03
64961;SHT31;51487;52.266;10.542;2023-07-31T03:11:28;16.50;97.22
64961;SHT31;51487;52.266;10.542;2023-07-31T03:13:53;16.55;97.14
64961;SHT31;51487;52.266;10.542;2023-07-31T03:16:19;16.66;96.95
64961;SHT31;51487;52.266;10.542;2023-07-31T03:18:44;16.56;96.98
64961;SHT31;51487;52.266;10.542;2023-07-31T03:21:10;16.59;97.00
64961;SHT31;51487;52.266;10.542;2023-07-31T03:23:36;16.48;97.33
64961;SHT31;51487;52.266;10.542;2023-07-31T03:26:05;16.59;97.63
64961;SHT31;51487;52.266;10.542;2023-07-31T03:28:30;16.50;97.93
64961;SHT31;51487;52.266;10.542;2023-07-31T03:30:56;16.45;97.88
64961;SHT31;51487;52.266;10.542;2023-07-31T03:33:21;16.49;97.95
64961;SHT31;51487;52.266;10.542;2023-07-31T03:35:47;16.49;98.23
64961;SHT31;51487;52.266;10.542;2023-07-31T03:38:13;16.56;98.33
64961;SHT31;51487;52.266;10.542;2023-07-31T03:40:39;16.52;98.19
64961;SHT31;51487;52.266;10.542;2023-07-31T03:43:05;16.52;97.89
64961;SHT31;51487;52.266;10.542;2023-07-31T03:45:31;16.53;98.27
64961;SHT31;51487;52.266;10.542;2023-07-31T03:47:56;16.50;97.94
64961;SHT31;51487;52.266;10.542;2023-07-31T03:50:22;16.52;98.28
64961;SHT31;51487;52.266;10.542;2023-07-31T03:52:48;16.42;98.27
64961;SHT31;51487;52.266;10.542;2023-07-31T03:55:13;16.45;98.53
64961;SHT31;51487;52.266;10.542;2023-07-31T03:57:39;16.49;98.63
64961;SHT31;51487;52.266;10.542;2023-07-31T04:00:08;16.39;98.88
64961;SHT31;51487;52.266;10.542;2023-07-31T04:02:36;16.48;98.70
64961;SHT31;51487;52.266;10.542;2023-07-31T04:05:01;16.48;98.80
64961;SHT31;51487;52.266;10.542;2023-07-31T04:07:27;16.48;99.10
64961;SHT31;51487;52.266;10.542;2023-07-31T04:09:57;16.46;99.03
64961;SHT31;51487;52.266;10.542;2023-07-31T04:12:23;16.46;98.93
64961;SHT31;51487;52.266;10.542;2023-07-31T04:14:49;16.49;99.28
64961;SHT31;51487;52.266;10.542;2023-07-31T04:17:14;16.46;99.04
64961;SHT31;51487;52.266;10.542;2023-07-31T04:19:40;16.36;99.35
64961;SHT31;51487;52.266;10.542;2023-07-31T04:22:06;16.46;99.48
64961;SHT31;51487;52.266;10.542;2023-07-31T04:24:31;16.34;99.14
64961;SHT31;51487;52.266;10.542;2023-07-31T04:26:57;16.42;99.36
64961;SHT31;51487;52.266;10.542;2023-07-31T04:29:24;16.40;99.70
64961;SHT31;51487;52.266;10.542;2023-07-31T04:31:50;16.46;99.15
64961;SHT31;51487;52.266;10.542;2023-07-31T04:34:26;16.48;99.24
64961;SHT31;51487;52.266;10.542;2023-07-31T04:36:51;16.48;99.03
64961;SHT31;51487;52.266;10.542;2023-07-31T04:39:17;16.50;99.17
64961;SHT31;51487;52.266;10.542;2023-07-31T04:41:43;16.48;99.46
64961;SHT31;51487;52.266;10.542;2023-07-31T04:44:08;16.48;99.53
64961;SHT31;51487;52.266;10.542;2023-07-31T04:46:36;16.40;99.41
64961;SHT31;51487;52.266;10.542;2023-07-31T04:49:02;16.33;99.51
64961;SHT31;51487;52.266;10.542;2023-07-31T04:51:28;16.33;99.33
64961;SHT31;51487;52.266;10.542;2023-07-31T04:53:54;16.36;98.93
64961;SHT31;51487;52.266;10.542;2023-07-31T04:56:19;16.39;99.60
64961;SHT31;51487;52.266;10.542;2023-07-31T04:58:45;16.43;98.71
64961;SHT31;51487;52.266;10.542;2023-07-31T05:01:13;16.32;98.77
64961;SHT31;51487;52.266;10.542;2023-07-31T05:03:38;16.22;98.27
64961;SHT31;51487;52.266;10.542;2023-07-31T05:06:04;16.13;98.48
64961;SHT31;51487;52.266;10.542;2023-07-31T05:08:29;16.11;98.73
64961;SHT31;51487;52.266;10.542;2023-07-31T05:10:55;16.05;99.18
64961;SHT31;51487;52.266;10.542;2023-07-31T05:13:23;16.01;98.08
64961;SHT31;51487;52.266;10.542;2023-07-31T05:15:48;15.98;99.04
64961;SHT31;51487;52.266;10.542;2023-07-31T05:18:15;15.92;99.02
64961;SHT31;51487;52.266;10.542;2023-07-31T05:20:40;16.00;99.56
64961;SHT31;51487;52.266;10.542;2023-07-31T05:23:06;15.92;98.97
64961;SHT31;51487;52.266;10.542;2023-07-31T05:25:32;15.94;99.16
64961;SHT31;51487;52.266;10.542;2023-07-31T05:27:58;15.97;98.92
64961;SHT31;51487;52.266;10.542;2023-07-31T05:30:23;16.05;99.16
64961;SHT31;51487;52.266;10.542;2023-07-31T05:32:49;16.01;99.33
64961;SHT31;51487;52.266;10.542;2023-07-31T05:35:15;15.95;99.49
64961;SHT31;51487;52.266;10.542;2023-07-31T05:37:40;16.09;99.97
64961;SHT31;51487;52.266;10.542;2023-07-31T05:40:07;16.02;99.83
64961;SHT31;51487;52.266;10.542;2023-07-31T05:42:32;15.97;99.64
64961;SHT31;51487;52.266;10.542;2023-07-31T05:44:58;15.91;99.81
64961;SHT31;51487;52.266;10.542;2023-07-31T05:47:24;15.88;99.78
64961;SHT31;51487;52.266;10.542;2023-07-31T05:49:49;15.90;99.99
64961;SHT31;51487;52.266;10.542;2023-07-31T05:52:18;15.88;99.99
64961;SHT31;51487;52.266;10.542;2023-07-31T05:54:44;15.88;99.76
64961;SHT31;51487;52.266;10.542;2023-07-31T05:57:11;16.01;99.99
64961;SHT31;51487;52.266;10.542;2023-07-31T05:59:38;16.16;99.75
64961;SHT31;51487;52.266;10.542;2023-07-31T06:02:04;16.08;99.76
64961;SHT31;51487;52.266;10.542;2023-07-31T06:04:29;16.04;99.53
64961;SHT31;51487;52.266;10.542;2023-07-31T06:06:56;16.13;99.74
64961;SHT31;51487;52.266;10.542;2023-07-31T06:09:21;16.32;99.94
64961;SHT31;51487;52.266;10.542;2023-07-31T06:11:47;16.29;99.99
64961;SHT31;51487;52.266;10.542;2023-07-31T06:14:12;16.34;99.99
64961;SHT31;51487;52.266;10.542;2023-07-31T06:16:38;16.33;99.44
64961;SHT31;51487;52.266;10.542;2023-07-31T06:19:04;16.52;99.99
64961;SHT31;51487;52.266;10.542;2023-07-31T06:21:30;16.73;99.54
64961;SHT31;51487;52.266;10.542;2023-07-31T06:23:56;16.77;99.20
64961;SHT31;51487;52.266;10.542;2023-07-31T06:26:22;16.79;99.22
64961;SHT31;51487;52.266;10.542;2023-07-31T06:28:47;17.03;98.80
64961;SHT31;51487;52.266;10.542;2023-07-31T06:31:13;17.06;98.86
64961;SHT31;51487;52.266;10.542;2023-07-31T06:33:38;17.15;98.27
64961;SHT31;51487;52.266;10.542;2023-07-31T06:36:04;17.10;99.00
64961;SHT31;51487;52.266;10.542;2023-07-31T06:38:30;17.12;98.86
64961;SHT31;51487;52.266;10.542;2023-07-31T06:40:55;17.25;97.97
64961;SHT31;51487;52.266;10.542;2023-07-31T06:43:21;17.17;98.63
64961;SHT31;51487;52.266;10.542;2023-07-31T06:45:47;17.31;98.21
64961;SHT31;51487;52.266;10.542;2023-07-31T06:48:15;17.35;96.60
64961;SHT31;51487;52.266;10.542;2023-07-31T06:50:41;17.45;96.97
64961;SHT31;51487;52.266;10.542;2023-07-31T06:53:07;17.38;97.84
64961;SHT31;51487;52.266;10.542;2023-07-31T06:55:32;17.43;97.07
64961;SHT31;51487;52.266;10.542;2023-07-31T06:57:58;17.63;97.36
64961;SHT31;51487;52.266;10.542;2023-07-31T07:00:24;17.52;96.34
64961;SHT31;51487;52.266;10.542;2023-07-31T07:02:50;17.58;97.12
64961;SHT31;51487;52.266;10.542;2023-07-31T07:05:17;17.66;97.22
64961;SHT31;51487;52.266;10.542;2023-07-31T07:07:43;17.68;97.16
64961;SHT31;51487;52.266;10.542;2023-07-31T07:10:09;17.56;97.43
64961;SHT31;51487;52.266;10.542;2023-07-31T07:12:36;17.58;96.07
64961;SHT31;51487;52.266;10.542;2023-07-31T07:15:02;17.55;97.12
64961;SHT31;51487;52.266;10.542;2023-07-31T07:17:29;17.55;95.34
64961;SHT31;51487;52.266;10.542;2023-07-31T07:19:57;17.56;95.99
64961;SHT31;51487;52.266;10.542;2023-07-31T07:22:23;17.46;95.80
64961;SHT31;51487;52.266;10.542;2023-07-31T07:24:49;17.36;96.75
64961;SHT31;51487;52.266;10.542;2023-07-31T07:27:15;17.48;97.09
64961;SHT31;51487;52.266;10.542;2023-07-31T07:29:40;17.52;97.09
64961;SHT31;51487;52.266;10.542;2023-07-31T07:32:06;17.50;96.90
64961;SHT31;51487;52.266;10.542;2023-07-31T07:34:32;17.46;96.98
64961;SHT31;51487;52.266;10.542;2023-07-31T07:36:58;17.38;96.83
64961;SHT31;51487;52.266;10.542;2023-07-31T07:39:23;17.42;96.44
64961;SHT31;51487;52.266;10.542;2023-07-31T07:41:51;17.38;97.21
64961;SHT31;51487;52.266;10.542;2023-07-31T07:44:18;17.39;95.79
64961;SHT31;51487;52.266;10.542;2023-07-31T07:46:44;17.43;95.51
64961;SHT31;51487;52.266;10.542;2023-07-31T07:49:09;17.53;95.21
64961;SHT31;51487;52.266;10.542;2023-07-31T07:51:35;17.48;96.65
64961;SHT31;51487;52.266;10.542;2023-07-31T07:54:01;17.55;96.22
64961;SHT31;51487;52.266;10.542;2023-07-31T07:56:29;17.61;96.34
64961;SHT31;51487;52.266;10.542;2023-07-31T07:58:55;17.56;97.10
64961;SHT31;51487;52.266;10.542;2023-07-31T08:01:21;17.63;96.14
64961;SHT31;51487;52.266;10.542;2023-07-31T08:03:47;17.58;95.63
64961;SHT31;51487;52.266;10.542;2023-07-31T08:06:14;17.61;96.12
64961;SHT31;51487;52.266;10.542;2023-07-31T08:08:40;17.52;94.97
64961;SHT31;51487;52.266;10.542;2023-07-31T08:11:06;17.68;95.15
64961;SHT31;51487;52.266;10.542;2023-07-31T08:13:32;17.75;94.33
64961;SHT31;51487;52.266;10.542;2023-07-31T08:15:57;17.94;94.78
64961;SHT31;51487;52.266;10.542;2023-07-31T08:18:23;18.17;94.86
64961;SHT31;51487;52.266;10.542;2023-07-31T08:20:49;18.37;95.04
64961;SHT31;51487;52.266;10.542;2023-07-31T08:23:14;18.58;94.21
64961;SHT31;51487;52.266;10.542;2023-07-31T08:25:40;18.55;92.34
64961;SHT31;51487;52.266;10.542;2023-07-31T08:28:06;18.66;92.90
64961;SHT31;51487;52.266;10.542;2023-07-31T08:30:33;18.76;91.20
64961;SHT31;51487;52.266;10.542;2023-07-31T08:33:02;18.65;91.81
64961;SHT31;51487;52.266;10.542;2023-07-31T08:35:28;18.73;90.90
64961;SHT31;51487;52.266;10.542;2023-07-31T08:37:57;18.84;91.84
64961;SHT31;51487;52.266;10.542;2023-07-31T08:40:23;18.64;90.45
64961;SHT31;51487;52.266;10.542;2023-07-31T08:42:52;18.44;92.12
64961;SHT31;51487;52.266;10.542;2023-07-31T08:45:20;18.34;89.35
64961;SHT31;51487;52.266;10.542;2023-07-31T08:47:51;18.24;90.19
64961;SHT31;51487;52.266;10.542;2023-07-31T08:50:23;18.37;90.17
64961;SHT31;51487;52.266;10.542;2023-07-31T08:52:51;18.24;89.43
64961;SHT31;51487;52.266;10.542;2023-07-31T08:55:49;18.11;90.85
64961;SHT31;51487;52.266;10.542;2023-07-31T08:58:18;17.99;92.06
64961;SHT31;51487;52.266;10.542;2023-07-31T09:00:48;17.90;91.59
64961;SHT31;51487;52.266;10.542;2023-07-31T09:03:18;17.97;92.80
64961;SHT31;51487;52.266;10.542;2023-07-31T09:06:10;18.03;92.91
64961;SHT31;51487;52.266;10.542;2023-07-31T09:08:41;18.11;92.26
64961;SHT31;51487;52.266;10.542;2023-07-31T09:11:07;18.07;93.49
64961;SHT31;51487;52.266;10.542;2023-07-31T09:13:33;18.07;92.15
64961;SHT31;51487;52.266;10.542;2023-07-31T09:15:59;18.08;93.06
64961;SHT31;51487;52.266;10.542;2023-07-31T09:18:25;18.13;92.43
64961;SHT31;51487;52.266;10.542;2023-07-31T09:21:06;18.13;91.54
64961;SHT31;51487;52.266;10.542;2023-07-31T09:23:44;18.13;92.35
64961;SHT31;51487;52.266;10.542;2023-07-31T09:26:12;18.07;92.94
64961;SHT31;51487;52.266;10.542;2023-07-31T09:28:53;18.24;92.77
64961;SHT31;51487;52.266;10.542;2023-07-31T09:31:39;18.16;92.72
64961;SHT31;51487;52.266;10.542;2023-07-31T09:34:05;18.26;92.62
64961;SHT31;51487;52.266;10.542;2023-07-31T09:36:31;18.30;93.22
64961;SHT31;51487;52.266;10.542;2023-07-31T09:39:04;17.99;93.02
64961;SHT31;51487;52.266;10.542;2023-07-31T09:41:31;18.08;93.73
64961;SHT31;51487;52.266;10.542;2023-07-31T09:43:56;18.08;92.90
64961;SHT31;51487;52.266;10.542;2023-07-31T09:46:27;18.03;94.68
64961;SHT31;51487;52.266;10.542;2023-07-31T09:49:13;18.01;94.22
64961;SHT31;51487;52.266;10.542;2023-07-31T09:51:40;17.99;94.58
64961;SHT31;51487;52.266;10.542;2023-07-31T09:54:11;18.00;94.46
64961;SHT31;51487;52.266;10.542;2023-07-31T09:56:48;18.03;94.44
64961;SHT31;51487;52.266;10.542;2023-07-31T09:59:18;17.87;94.23
64961;SHT31;51487;52.266;10.542;2023-07-31T10:01:46;17.80;94.32
64961;SHT31;51487;52.266;10.542;2023-07-31T10:04:15;17.79;94.48
64961;SHT31;51487;52.266;10.542;2023-07-31T10:06:45;17.96;94.24
64961;SHT31;51487;52.266;10.542;2023-07-31T10:09:15;17.99;94.62
64961;SHT31;51487;52.266;10.542;2023-07-31T10:11:53;18.08;94.06
64961;SHT31;51487;52.266;10.542;2023-07-31T10:14:29;18.26;94.28
64961;SHT31;51487;52.266;10.542;2023-07-31T10:16:58;18.11;93.29
64961;SHT31;51487;52.266;10.542;2023-07-31T10:19:24;18.34;93.75
64961;SHT31;51487;52.266;10.542;2023-07-31T10:21:56;18.37;92.77
64961;SHT31;51487;52.266;10.542;2023-07-31T10:24:26;18.66;92.38
64961;SHT31;51487;52.266;10.542;2023-07-31T10:26:54;18.94;92.20
64961;SHT31;51487;52.266;10.542;2023-07-31T10:29:24;18.91;91.99
64961;SHT31;51487;52.266;10.542;2023-07-31T10:31:50;19.02;91.63
64961;SHT31;51487;52.266;10.542;2023-07-31T10:34:17;19.00;91.45
64961;SHT31;51487;52.266;10.542;2023-07-31T10:36:43;19.34;90.32
64961;SHT31;51487;52.266;10.542;2023-07-31T10:39:37;19.73;88.15
64961;SHT31;51487;52.266;10.542;2023-07-31T10:42:13;19.79;88.28
64961;SHT31;51487;52.266;10.542;2023-07-31T10:44:46;19.88;87.80
64961;SHT31;51487;52.266;10.542;2023-07-31T10:47:20;19.68;87.90
64961;SHT31;51487;52.266;10.542;2023-07-31T10:49:46;19.54;87.83
64961;SHT31;51487;52.266;10.542;2023-07-31T10:52:13;19.63;88.03
64961;SHT31;51487;52.266;10.542;2023-07-31T10:54:39;19.73;88.97
64961;SHT31;51487;52.266;10.542;2023-07-31T10:57:22;19.95;88.10
64961;SHT31;51487;52.266;10.542;2023-07-31T10:59:53;19.82;88.15
64961;SHT31;51487;52.266;10.542;2023-07-31T11:02:38;19.86;87.89
64961;SHT31;51487;52.266;10.542;2023-07-31T11:05:09;20.13;87.19
64961;SHT31;51487;52.266;10.542;2023-07-31T11:07:50;20.29;87.14
64961;SHT31;51487;52.266;10.542;2023-07-31T11:10:19;20.21;86.00
64961;SHT31;51487;52.266;10.542;2023-07-31T11:12:45;20.43;85.88
64961;SHT31;51487;52.266;10.542;2023-07-31T11:15:12;20.74;85.88
64961;SHT31;51487;52.266;10.542;2023-07-31T11:17:41;20.71;85.62
64961;SHT31;51487;52.266;10.542;2023-07-31T11:20:07;20.79;85.61
64961;SHT31;51487;52.266;10.542;2023-07-31T11:22:35;20.88;83.67
64961;SHT31;51487;52.266;10.542;2023-07-31T11:25:03;21.05;83.66
64961;SHT31;51487;52.266;10.542;2023-07-31T11:27:30;20.94;84.44
64961;SHT31;51487;52.266;10.542;2023-07-31T11:30:03;21.21;82.62
64961;SHT31;51487;52.266;10.542;2023-07-31T11:32:29;21.48;83.04
64961;SHT31;51487;52.266;10.542;2023-07-31T11:34:57;21.82;81.91
64961;SHT31;51487;52.266;10.542;2023-07-31T11:37:23;21.67;82.29
64961;SHT31;51487;52.266;10.542;2023-07-31T11:40:00;21.73;79.95
64961;SHT31;51487;52.266;10.542;2023-07-31T11:42:28;21.72;79.29
64961;SHT31;51487;52.266;10.542;2023-07-31T11:44:54;21.38;79.88
64961;SHT31;51487;52.266;10.542;2023-07-31T11:47:20;21.34;81.28
64961;SHT31;51487;52.266;10.542;2023-07-31T11:49:46;21.25;80.82
64961;SHT31;51487;52.266;10.542;2023-07-31T11:52:17;21.08;82.04
64961;SHT31;51487;52.266;10.542;2023-07-31T11:54:46;20.98;82.04
64961;SHT31;51487;52.266;10.542;2023-07-31T11:57:13;20.90;82.45
64961;SHT31;51487;52.266;10.542;2023-07-31T11:59:39;20.97;81.16
64961;SHT31;51487;52.266;10.542;2023-07-31T12:02:05;20.95;81.22
64961;SHT31;51487;52.266;10.542;2023-07-31T12:04:31;20.76;82.01
64961;SHT31;51487;52.266;10.542;2023-07-31T12:07:02;20.87;81.81
64961;SHT31;51487;52.266;10.542;2023-07-31T12:09:31;20.80;81.71
64961;SHT31;51487;52.266;10.542;2023-07-31T12:11:58;20.92;80.79
64961;SHT31;51487;52.266;10.542;2023-07-31T12:14:27;20.74;80.40
64961;SHT31;51487;52.266;10.542;2023-07-31T12:17:05;20.84;81.15
64961;SHT31;51487;52.266;10.542;2023-07-31T12:19:33;20.88;82.46
64961;SHT31;51487;52.266;10.542;2023-07-31T12:22:01;20.90;82.09
64961;SHT31;51487;52.266;10.542;2023-07-31T12:24:29;20.84;82.58
64961;SHT31;51487;52.266;10.542;2023-07-31T12:26:56;20.98;82.18
64961;SHT31;51487;52.266;10.542;2023-07-31T12:29:22;20.95;82.42
64961;SHT31;51487;52.266;10.542;2023-07-31T12:31:50;21.14;81.93
64961;SHT31;51487;52.266;10.542;2023-07-31T12:34:18;21.20;82.03
64961;SHT31;51487;52.266;10.542;2023-07-31T12:36:47;20.94;82.82
64961;SHT31;51487;52.266;10.542;2023-07-31T12:39:19;21.01;83.17
64961;SHT31;51487;52.266;10.542;2023-07-31T12:41:44;20.95;83.40
64961;SHT31;51487;52.266;10.542;2023-07-31T12:44:16;21.00;82.94
64961;SHT31;51487;52.266;10.542;2023-07-31T12:46:42;21.00;83.15
64961;SHT31;51487;52.266;10.542;2023-07-31T12:49:37;20.94;82.89
64961;SHT31;51487;52.266;10.542;2023-07-31T12:52:06;21.05;82.37
64961;SHT31;51487;52.266;10.542;2023-07-31T12:54:32;21.12;82.52
64961;SHT31;51487;52.266;10.542;2023-07-31T12:57:05;21.14;82.28
64961;SHT31;51487;52.266;10.542;2023-07-31T12:59:39;21.14;82.46
64961;SHT31;51487;52.266;10.542;2023-07-31T13:02:05;21.05;82.12
64961;SHT31;51487;52.266;10.542;2023-07-31T13:04:32;21.12;81.47
64961;SHT31;51487;52.266;10.542;2023-07-31T13:07:00;20.97;81.10
64961;SHT31;51487;52.266;10.542;2023-07-31T13:09:25;20.98;81.88
64961;SHT31;51487;52.266;10.542;2023-07-31T13:11:51;20.98;81.65
64961;SHT31;51487;52.266;10.542;2023-07-31T13:14:16;21.02;82.21
64961;SHT31;51487;52.266;10.542;2023-07-31T13:16:42;21.11;81.76
64961;SHT31;51487;52.266;10.542;2023-07-31T13:19:08;20.92;82.12
64961;SHT31;51487;52.266;10.542;2023-07-31T13:21:36;20.91;82.82
64961;SHT31;51487;52.266;10.542;2023-07-31T13:24:02;20.84;83.11
64961;SHT31;51487;52.266;10.542;2023-07-31T13:26:30;20.71;84.81
64961;SHT31;51487;52.266;10.542;2023-07-31T13:28:56;20.42;84.79
64961;SHT31;51487;52.266;10.542;2023-07-31T13:31:21;20.53;84.60
64961;SHT31;51487;52.266;10.542;2023-07-31T13:33:48;20.87;83.97
64961;SHT31;51487;52.266;10.542;2023-07-31T13:36:14;21.08;83.78
64961;SHT31;51487;52.266;10.542;2023-07-31T13:38:40;21.24;82.38
64961;SHT31;51487;52.266;10.542;2023-07-31T13:41:09;21.24;82.68
64961;SHT31;51487;52.266;10.542;2023-07-31T13:43:35;21.12;82.67
64961;SHT31;51487;52.266;10.542;2023-07-31T13:46:14;21.25;82.75
64961;SHT31;51487;52.266;10.542;2023-07-31T13:48:40;21.38;81.03
64961;SHT31;51487;52.266;10.542;2023-07-31T13:51:05;21.12;81.73
64961;SHT31;51487;52.266;10.542;2023-07-31T13:53:31;20.95;81.67
64961;SHT31;51487;52.266;10.542;2023-07-31T13:56:00;20.71;82.23
64961;SHT31;51487;52.266;10.542;2023-07-31T13:58:27;20.67;82.29
64961;SHT31;51487;52.266;10.542;2023-07-31T14:00:53;20.74;82.07
64961;SHT31;51487;52.266;10.542;2023-07-31T14:03:22;20.71;82.30
64961;SHT31;51487;52.266;10.542;2023-07-31T14:05:47;20.64;81.99
64961;SHT31;51487;52.266;10.542;2023-07-31T14:08:16;20.66;82.54
64961;SHT31;51487;52.266;10.542;2023-07-31T14:10:42;20.62;83.11
64961;SHT31;51487;52.266;10.542;2023-07-31T14:13:08;20.80;82.53
64961;SHT31;51487;52.266;10.542;2023-07-31T14:15:42;20.94;82.23
64961;SHT31;51487;52.266;10.542;2023-07-31T14:18:09;20.95;82.65
64961;SHT31;51487;52.266;10.542;2023-07-31T14:20:38;20.85;82.95
64961;SHT31;51487;52.266;10.542;2023-07-31T14:23:05;20.88;82.73
64961;SHT31;51487;52.266;10.542;2023-07-31T14:25:33;20.77;83.50
64961;SHT31;51487;52.266;10.542;2023-07-31T14:28:18;20.56;83.96
64961;SHT31;51487;52.266;10.542;2023-07-31T14:30:46;20.44;83.89
64961;SHT31;51487;52.266;10.542;2023-07-31T14:33:12;20.39;84.73
64961;SHT31;51487;52.266;10.542;2023-07-31T14:35:40;20.36;84.96
64961;SHT31;51487;52.266;10.542;2023-07-31T14:38:15;20.29;85.73
64961;SHT31;51487;52.266;10.542;2023-07-31T14:40:44;20.59;85.32
64961;SHT31;51487;52.266;10.542;2023-07-31T14:43:16;20.85;84.86
64961;SHT31;51487;52.266;10.542;2023-07-31T14:45:42;20.95;83.97
64961;SHT31;51487;52.266;10.542;2023-07-31T14:48:07;21.00;84.11
64961;SHT31;51487;52.266;10.542;2023-07-31T14:50:33;21.07;84.22
64961;SHT31;51487;52.266;10.542;2023-07-31T14:52:59;21.21;83.45
64961;SHT31;51487;52.266;10.542;2023-07-31T14:55:25;21.22;82.91
64961;SHT31;51487;52.266;10.542;2023-07-31T14:58:00;20.98;83.25
64961;SHT31;51487;52.266;10.542;2023-07-31T15:00:35;20.81;83.65
64961;SHT31;51487;52.266;10.542;2023-07-31T15:03:02;20.79;84.33
64961;SHT31;51487;52.266;10.542;2023-07-31T15:05:27;20.73;84.35
64961;SHT31;51487;52.266;10.542;2023-07-31T15:07:53;20.80;84.13
64961;SHT31;51487;52.266;10.542;2023-07-31T15:10:19;20.98;83.33
64961;SHT31;51487;52.266;10.542;2023-07-31T15:12:44;21.15;83.67
64961;SHT31;51487;52.266;10.542;2023-07-31T15:15:10;21.14;83.44
64961;SHT31;51487;52.266;10.542;2023-07-31T15:17:35;21.24;83.05
64961;SHT31;51487;52.266;10.542;2023-07-31T15:20:01;21.34;82.74
64961;SHT31;51487;52.266;10.542;2023-07-31T15:22:27;21.22;82.86
64961;SHT31;51487;52.266;10.542;2023-07-31T15:24:53;21.24;83.27